Aérodrome :
LOGIN :

S'inscrire | Disclaimer

   EN    FR    IT 

 










Légende :    VFR   VFR Marginal   IFR   IFR Intensif   IFR Très Intensif
Visi : 
Plafond : 
>= 8 km
>= 3000ft
5 à 8 km
1000 à 3000 ft
1500m à 5 km
500 à 1000 ft
800 à 1500m
200 à 500 ft
< 800m
< 200 ft
Symboles :   Orages  Brouillard  Fortes neiges  Fortes précipitations  Vent > 20 kt
SIGMETs :   Divers  Orages  Givrage  Turbulence  Onde Orograph.  Cendres Volcan.







- Altitude de l'aérodrome : 459 ft
- Code IATA : CER
- Voir les cartes d'approche


LFRC - Cherbourg / Maupertus

DERNIER METAR :
  • 222200Z AUTO 27011KT 9999 BKN006 10/09 Q1015

METARs EXPIRÉS :
  • 222130Z AUTO 27011KT 9999 OVC005 10/10 Q1015
  • 222100Z AUTO 27011KT 9999 BKN005 BKN062 BKN210 11/10 Q1015
  • 222030Z AUTO 28012KT 9999 BKN005 BKN052 BKN210 11/09 Q1014
  • 222000Z AUTO 27011KT CAVOK 11/09 Q1014
  • 221930Z AUTO 27010KT CAVOK 11/09 Q1014

TAF TAF LFRC
Valide du 22 à 15h jusqu'au 23 à 00h UTC


221400Z 2215/2224 24012KT CAVOK
PROB30
TEMPO 2215/2218 0500 FG VV///
BECMG 2216/2218 3000 BR BKN004
TEMPO 2218/2224 0500 FG VV///
Pas de NOTAMs connus pour ce terrain.



MET'MAP, la Météo Aéronautique d'un coup d'oeil ! - Copyright ORBIFLY Décembre 2007 - Disclaimer

ORBIFLY MET'MAP TEAM :

Programmation & Développement : Alexandra Zaïnal
Conception & Développement : Baudouin d'Aumeries
Co-Programmation & Développement : Marc-Olivier Méhu
Soutien technique & logistique : Manuel Goepfert

Contact : metmap@orbifly.com




SOURCES & CREDITS :

   NOAA